createdAt,value
2018-08-23T00:00:55.362Z,21.70
2018-08-23T00:03:26.745Z,21.60
2018-08-23T00:05:55.969Z,21.50
2018-08-23T00:08:23.966Z,21.40
2018-08-23T00:10:52.003Z,21.50
2018-08-23T00:13:19.721Z,21.50
2018-08-23T00:15:47.110Z,21.40
2018-08-23T00:18:14.563Z,21.30
2018-08-23T00:20:41.954Z,21.20
2018-08-23T00:23:09.411Z,21.20
2018-08-23T00:25:37.442Z,21.30
2018-08-23T00:28:05.122Z,21.30
2018-08-23T00:30:33.070Z,21.30
2018-08-23T00:33:01.834Z,21.20
2018-08-23T00:35:31.315Z,21.20
2018-08-23T00:37:58.698Z,21.20
2018-08-23T00:40:26.094Z,21.20
2018-08-23T00:42:59.271Z,21.20
2018-08-23T00:45:27.301Z,21.20
2018-08-23T00:47:55.363Z,21.20
2018-08-23T00:51:02.849Z,21.10
2018-08-23T00:53:31.641Z,21.10
2018-08-23T00:56:09.336Z,21.00
2018-08-23T00:58:36.729Z,21.00
2018-08-23T01:01:04.476Z,21.00
2018-08-23T01:03:34.473Z,21.00
2018-08-23T01:06:02.723Z,21.00
2018-08-23T01:08:33.601Z,21.00
2018-08-23T01:11:01.142Z,21.00
2018-08-23T01:13:28.573Z,21.00
2018-08-23T01:15:55.973Z,20.90
2018-08-23T01:18:23.422Z,20.90
2018-08-23T01:20:51.928Z,20.90
2018-08-23T01:23:19.368Z,20.80
2018-08-23T01:25:47.553Z,20.80
2018-08-23T01:28:14.953Z,20.70
2018-08-23T01:30:42.829Z,20.70
2018-08-23T01:33:13.253Z,20.60
2018-08-23T01:35:41.608Z,20.70
2018-08-23T01:38:09.046Z,20.70
2018-08-23T01:40:36.450Z,20.70
2018-08-23T01:43:03.838Z,20.70
2018-08-23T01:45:31.262Z,20.70
2018-08-23T01:47:58.708Z,20.70
2018-08-23T01:50:26.376Z,20.70
2018-08-23T01:52:54.910Z,20.70
2018-08-23T01:55:23.293Z,20.70
2018-08-23T01:57:51.253Z,20.60
2018-08-23T02:00:21.859Z,20.50
2018-08-23T02:02:49.237Z,20.50
2018-08-23T02:05:16.736Z,20.60
2018-08-23T02:07:44.149Z,20.60
2018-08-23T02:10:11.542Z,20.60
2018-08-23T02:12:39.613Z,20.70
2018-08-23T02:15:07.678Z,20.60
2018-08-23T02:17:38.978Z,20.60
2018-08-23T02:20:06.398Z,20.60
2018-08-23T02:22:33.864Z,20.50
2018-08-23T02:25:01.258Z,20.50
2018-08-23T02:27:28.674Z,20.40
2018-08-23T02:29:56.090Z,20.40
2018-08-23T02:32:23.509Z,20.40
2018-08-23T02:34:50.930Z,20.30
2018-08-23T02:37:18.596Z,20.30
2018-08-23T02:39:46.771Z,20.20
2018-08-23T02:42:16.474Z,20.20
2018-08-23T02:44:44.976Z,20.10
2018-08-23T02:47:12.765Z,20.00
2018-08-23T02:49:41.291Z,20.00
2018-08-23T02:52:09.359Z,20.00
2018-08-23T02:54:36.757Z,20.00
2018-08-23T02:57:08.711Z,19.90
2018-08-23T02:59:36.137Z,19.70
2018-08-23T03:02:03.562Z,19.60
2018-08-23T03:04:30.949Z,19.60
2018-08-23T03:07:00.594Z,19.60
2018-08-23T03:09:29.480Z,19.50
2018-08-23T03:11:58.960Z,19.50
2018-08-23T03:14:27.342Z,19.50
2018-08-23T03:17:13.290Z,19.50
2018-08-23T03:19:46.485Z,19.60
2018-08-23T03:22:13.909Z,19.50
2018-08-23T03:24:41.281Z,19.40
2018-08-23T03:27:08.670Z,19.40
2018-08-23T03:29:36.058Z,19.50
2018-08-23T03:32:03.463Z,19.50
2018-08-23T03:34:30.882Z,19.50
2018-08-23T03:36:58.959Z,19.40
2018-08-23T03:39:27.014Z,19.40
2018-08-23T03:41:55.071Z,19.50
2018-08-23T03:44:27.865Z,19.50
2018-08-23T03:46:56.090Z,19.50
2018-08-23T03:49:25.031Z,19.50
2018-08-23T03:51:52.949Z,19.50
2018-08-23T03:54:20.362Z,19.60
2018-08-23T03:56:56.581Z,19.60
2018-08-23T03:59:24.006Z,19.60
2018-08-23T04:01:51.422Z,19.60
2018-08-23T04:04:18.886Z,19.60
2018-08-23T04:06:46.286Z,19.60
2018-08-23T04:09:13.687Z,19.60
2018-08-23T04:11:41.097Z,19.60
2018-08-23T04:14:08.502Z,19.60
2018-08-23T04:16:35.901Z,19.50
2018-08-23T04:19:03.306Z,19.50
2018-08-23T04:21:30.722Z,19.50
2018-08-23T04:23:58.110Z,19.50
2018-08-23T04:26:26.454Z,19.40
2018-08-23T04:28:53.832Z,19.40
2018-08-23T04:31:21.242Z,19.40
2018-08-23T04:33:48.629Z,19.30
2018-08-23T04:36:33.534Z,19.20
2018-08-23T04:39:06.072Z,19.10
2018-08-23T04:41:33.474Z,19.10
2018-08-23T04:44:04.738Z,19.00
2018-08-23T04:46:32.490Z,19.00
2018-08-23T04:49:00.685Z,19.10
2018-08-23T04:51:28.070Z,19.10
2018-08-23T04:53:55.472Z,19.20
2018-08-23T04:56:22.889Z,19.20
2018-08-23T04:58:50.261Z,19.30
2018-08-23T05:01:17.663Z,19.40
2018-08-23T05:03:45.047Z,19.50
2018-08-23T05:06:12.438Z,19.60
2018-08-23T05:08:39.853Z,19.60
2018-08-23T05:11:07.260Z,19.60
2018-08-23T05:13:34.642Z,19.60
2018-08-23T05:16:02.048Z,19.60
2018-08-23T05:18:29.465Z,19.60
2018-08-23T05:20:56.850Z,19.60
2018-08-23T05:23:24.241Z,19.70
2018-08-23T05:25:55.288Z,19.70
2018-08-23T05:28:22.690Z,19.80
2018-08-23T05:30:50.239Z,19.80
2018-08-23T05:33:19.622Z,19.90
2018-08-23T05:35:47.170Z,20.00
2018-08-23T05:38:15.128Z,20.00
2018-08-23T05:40:53.600Z,20.10
2018-08-23T05:43:21.170Z,20.20
2018-08-23T05:45:49.749Z,20.20
2018-08-23T05:48:23.149Z,20.30
2018-08-23T05:50:50.565Z,20.40
2018-08-23T05:53:18.634Z,20.40
2018-08-23T05:55:47.405Z,20.40
2018-08-23T05:58:17.596Z,20.50
2018-08-23T06:00:45.133Z,20.50
2018-08-23T06:03:13.709Z,20.50
2018-08-23T06:05:41.252Z,20.60
2018-08-23T06:08:08.675Z,20.70
2018-08-23T06:10:36.697Z,20.80
2018-08-23T06:13:04.818Z,20.90
2018-08-23T06:15:35.395Z,20.90
2018-08-23T06:18:03.453Z,21.00
2018-08-23T06:20:31.516Z,21.00
2018-08-23T06:22:59.615Z,21.00
2018-08-23T06:25:27.667Z,21.00
2018-08-23T06:27:55.718Z,21.10
2018-08-23T06:30:23.791Z,21.10
2018-08-23T06:32:55.894Z,21.10
2018-08-23T06:35:23.701Z,21.20
2018-08-23T06:37:56.059Z,21.10
2018-08-23T06:40:23.469Z,21.30
2018-08-23T06:42:58.160Z,21.30
2018-08-23T06:45:25.554Z,21.30
2018-08-23T06:47:57.273Z,21.40
2018-08-23T06:50:25.917Z,21.50
2018-08-23T06:52:53.394Z,21.60
2018-08-23T06:55:23.059Z,21.70
2018-08-23T06:57:54.781Z,21.80
2018-08-23T07:00:25.050Z,21.90
2018-08-23T07:02:52.434Z,21.90
2018-08-23T07:05:20.516Z,22.00
2018-08-23T07:07:48.151Z,22.10
2018-08-23T07:10:16.400Z,22.20
2018-08-23T07:12:44.518Z,22.30
2018-08-23T07:15:12.587Z,22.30
2018-08-23T07:17:40.058Z,22.30
2018-08-23T07:20:09.774Z,22.40
2018-08-23T07:22:37.186Z,22.60
2018-08-23T07:25:04.985Z,22.80
2018-08-23T07:27:32.388Z,22.80
2018-08-23T07:30:00.118Z,22.90
2018-08-23T07:32:29.734Z,23.10
2018-08-23T07:35:03.097Z,23.10
2018-08-23T07:37:31.784Z,23.30
2018-08-23T07:40:04.621Z,23.30
2018-08-23T07:42:33.021Z,23.30
2018-08-23T07:45:01.538Z,23.30
2018-08-23T07:47:29.169Z,23.40
2018-08-23T07:49:58.472Z,23.50
2018-08-23T07:52:27.678Z,23.70
2018-08-23T07:54:55.814Z,23.70
2018-08-23T07:57:23.906Z,23.60
2018-08-23T07:59:56.914Z,23.60
2018-08-23T08:02:24.307Z,23.60
2018-08-23T08:04:52.354Z,23.70
2018-08-23T08:07:25.118Z,23.60
2018-08-23T08:09:52.493Z,23.60
2018-08-23T08:12:25.992Z,23.60
2018-08-23T08:14:54.041Z,23.40
2018-08-23T08:17:28.795Z,23.50
2018-08-23T08:19:58.078Z,23.60
2018-08-23T08:22:26.337Z,23.60
2018-08-23T08:25:03.830Z,23.50
2018-08-23T08:27:31.874Z,23.40
2018-08-23T08:29:59.269Z,23.40
2018-08-23T08:32:26.674Z,23.40
2018-08-23T08:34:55.978Z,23.40
2018-08-23T08:37:23.366Z,23.40
2018-08-23T08:39:51.578Z,23.30
2018-08-23T08:42:28.918Z,23.40
2018-08-23T08:45:02.440Z,23.50
2018-08-23T08:47:30.867Z,23.60
2018-08-23T08:49:58.254Z,23.60
2018-08-23T08:52:25.645Z,23.70
2018-08-23T08:54:53.046Z,23.70
2018-08-23T08:57:24.258Z,23.70
2018-08-23T08:59:52.627Z,23.80
2018-08-23T09:02:25.666Z,23.90
2018-08-23T09:04:53.698Z,24.00
2018-08-23T09:07:25.994Z,24.10
2018-08-23T09:09:54.060Z,24.30
2018-08-23T09:12:21.437Z,24.40
2018-08-23T09:14:49.526Z,24.50
2018-08-23T09:17:28.272Z,24.60
2018-08-23T09:20:00.513Z,24.80
2018-08-23T09:22:32.223Z,25.00
2018-08-23T09:24:59.933Z,25.10
2018-08-23T09:27:27.330Z,25.10
2018-08-23T09:29:54.734Z,25.10
2018-08-23T09:32:27.953Z,25.10
2018-08-23T09:35:01.931Z,25.00
2018-08-23T09:37:30.228Z,25.00
2018-08-23T09:39:57.627Z,25.00
2018-08-23T09:42:29.946Z,25.10
2018-08-23T09:45:03.050Z,25.20
2018-08-23T09:47:30.736Z,25.40
2018-08-23T09:49:59.683Z,25.30
2018-08-23T09:52:30.391Z,25.30
2018-08-23T09:54:57.965Z,25.40
2018-08-23T09:57:26.064Z,25.60
2018-08-23T09:59:54.315Z,25.80
2018-08-23T10:02:27.412Z,25.80
2018-08-23T10:04:56.029Z,26.00
2018-08-23T10:07:29.401Z,26.00
2018-08-23T10:11:01.162Z,26.20
2018-08-23T10:13:34.620Z,26.30
2018-08-23T10:16:07.326Z,26.50
2018-08-23T10:18:40.397Z,26.60
2018-08-23T10:21:07.809Z,26.70
2018-08-23T10:23:35.213Z,26.80
2018-08-23T10:26:08.253Z,26.70
2018-08-23T10:28:41.178Z,26.80
2018-08-23T10:31:08.562Z,26.90
2018-08-23T10:33:35.937Z,27.10
2018-08-23T10:36:07.214Z,27.40
2018-08-23T10:38:34.617Z,27.70
2018-08-23T10:41:04.358Z,28.00
2018-08-23T10:43:37.268Z,28.20
2018-08-23T10:46:05.276Z,28.30
2018-08-23T10:48:32.817Z,28.50
2018-08-23T10:51:00.299Z,28.40
2018-08-23T10:53:27.638Z,28.40
2018-08-23T10:55:55.057Z,28.20
2018-08-23T10:58:22.471Z,28.20
2018-08-23T11:00:49.897Z,28.40
2018-08-23T11:03:17.289Z,28.90
2018-08-23T11:05:44.732Z,29.50
2018-08-23T11:08:17.606Z,30.10
2018-08-23T11:10:50.633Z,30.40
2018-08-23T11:13:23.621Z,31.00
2018-08-23T11:15:55.379Z,31.40
2018-08-23T11:18:28.489Z,31.50
2018-08-23T11:20:55.882Z,31.90
2018-08-23T11:23:25.065Z,32.10
2018-08-23T11:25:52.461Z,32.20
2018-08-23T11:28:21.791Z,32.40
2018-08-23T11:30:50.422Z,32.50
2018-08-23T11:33:17.843Z,32.70
2018-08-23T11:35:45.934Z,33.00
2018-08-23T11:38:13.334Z,33.30
2018-08-23T11:40:40.717Z,33.60
2018-08-23T11:43:08.104Z,33.70
2018-08-23T11:45:35.497Z,34.00
2018-08-23T11:48:03.556Z,33.60
2018-08-23T11:50:30.981Z,33.10
2018-08-23T11:52:58.416Z,33.20
2018-08-23T11:55:25.902Z,33.70
2018-08-23T11:57:53.350Z,34.10
2018-08-23T12:00:20.710Z,34.30
2018-08-23T12:02:48.753Z,34.30
2018-08-23T12:05:17.409Z,34.40
2018-08-23T12:07:44.836Z,34.30
2018-08-23T12:10:12.766Z,33.60
2018-08-23T12:12:40.175Z,32.70
2018-08-23T12:15:07.559Z,31.80
2018-08-23T12:17:34.953Z,30.90
2018-08-23T12:20:02.346Z,30.00
2018-08-23T12:22:35.889Z,29.40
2018-08-23T12:25:03.403Z,28.70
2018-08-23T12:27:31.449Z,27.70
2018-08-23T12:30:02.011Z,26.70
2018-08-23T12:32:29.385Z,25.40
2018-08-23T12:34:56.840Z,24.00
2018-08-23T12:37:29.887Z,21.90
2018-08-23T12:40:02.744Z,21.20
2018-08-23T12:42:35.617Z,20.70
2018-08-23T12:45:03.006Z,20.60
2018-08-23T12:47:30.388Z,20.50
2018-08-23T12:50:04.317Z,20.40
2018-08-23T12:52:31.806Z,20.30
2018-08-23T12:54:59.418Z,20.30
2018-08-23T12:57:27.156Z,20.30
2018-08-23T12:59:54.529Z,20.30
2018-08-23T13:02:21.989Z,20.40
2018-08-23T13:04:49.483Z,20.60
2018-08-23T13:07:16.865Z,20.80
2018-08-23T13:09:44.689Z,20.90
2018-08-23T13:12:12.089Z,21.00
2018-08-23T13:14:39.461Z,21.10
2018-08-23T13:17:07.056Z,21.20
2018-08-23T13:19:34.393Z,21.20
2018-08-23T13:22:02.925Z,21.20
2018-08-23T13:24:31.073Z,21.30
2018-08-23T13:26:58.458Z,21.30
2018-08-23T13:29:26.364Z,21.40
2018-08-23T13:31:53.802Z,21.40
2018-08-23T13:34:21.193Z,21.60
2018-08-23T13:36:48.660Z,21.60
2018-08-23T13:39:15.981Z,21.70
2018-08-23T13:41:43.412Z,21.70
2018-08-23T13:44:10.802Z,21.80
2018-08-23T13:46:38.262Z,21.90
2018-08-23T13:49:05.658Z,21.90
2018-08-23T13:51:33.105Z,21.90
2018-08-23T13:54:00.533Z,21.90
2018-08-23T13:56:27.875Z,21.90
2018-08-23T13:58:56.319Z,21.90
2018-08-23T14:01:26.750Z,22.00
2018-08-23T14:03:54.858Z,22.10
2018-08-23T14:06:22.281Z,22.10
2018-08-23T14:08:49.686Z,22.20
2018-08-23T14:11:17.841Z,22.20
2018-08-23T14:13:45.827Z,22.30
2018-08-23T14:16:13.861Z,22.30
2018-08-23T14:18:41.895Z,22.30
2018-08-23T14:21:09.268Z,22.30
2018-08-23T14:23:36.839Z,22.20
2018-08-23T14:26:05.015Z,22.20
2018-08-23T14:28:33.078Z,22.20
2018-08-23T14:31:01.130Z,22.20
2018-08-23T14:33:28.862Z,22.30
2018-08-23T14:35:57.032Z,22.20
2018-08-23T14:38:24.468Z,22.30
2018-08-23T14:40:51.843Z,22.30
2018-08-23T14:43:19.237Z,22.30
2018-08-23T14:45:46.626Z,22.30
2018-08-23T14:48:18.421Z,22.30
2018-08-23T14:50:50.144Z,22.40
2018-08-23T14:53:23.263Z,22.40
2018-08-23T14:55:56.085Z,22.50
2018-08-23T14:58:23.493Z,22.50
2018-08-23T15:00:50.884Z,22.70
2018-08-23T15:03:18.281Z,22.80
2018-08-23T15:05:45.669Z,23.00
2018-08-23T15:08:13.086Z,23.10
2018-08-23T15:10:40.473Z,23.10
2018-08-23T15:13:08.515Z,23.10
2018-08-23T15:15:41.510Z,23.20
2018-08-23T15:18:08.917Z,23.30
2018-08-23T15:20:36.329Z,23.30
2018-08-23T15:23:03.721Z,23.30
2018-08-23T15:25:31.789Z,23.20
2018-08-23T15:27:59.167Z,23.20
2018-08-23T15:30:26.550Z,23.20
2018-08-23T15:32:54.621Z,23.10
2018-08-23T15:35:22.680Z,23.10
2018-08-23T15:37:50.718Z,23.20
2018-08-23T15:40:18.109Z,23.30
2018-08-23T15:42:45.514Z,23.30
2018-08-23T15:45:12.897Z,23.30
2018-08-23T15:47:40.305Z,23.30
2018-08-23T15:50:07.705Z,23.20
2018-08-23T15:52:35.095Z,23.30
2018-08-23T15:55:02.581Z,23.40
2018-08-23T15:57:29.909Z,23.60
2018-08-23T15:59:57.974Z,23.80
2018-08-23T16:02:25.353Z,23.90
2018-08-23T16:04:53.426Z,24.00
2018-08-23T16:07:21.471Z,23.90
2018-08-23T16:09:49.517Z,24.00
2018-08-23T16:12:17.594Z,24.00
2018-08-23T16:14:45.629Z,24.00
2018-08-23T16:17:18.745Z,24.00
2018-08-23T16:19:51.762Z,24.10
2018-08-23T16:22:19.807Z,24.30
2018-08-23T16:24:47.890Z,24.30
2018-08-23T16:27:15.233Z,24.40
2018-08-23T16:29:50.184Z,24.30
2018-08-23T16:32:23.228Z,24.30
2018-08-23T16:34:51.347Z,24.30
2018-08-23T16:37:18.751Z,24.30
2018-08-23T16:39:46.796Z,24.30
2018-08-23T16:42:14.827Z,24.50
2018-08-23T16:44:42.871Z,24.70
2018-08-23T16:47:10.721Z,25.00
2018-08-23T16:49:38.371Z,25.30
2018-08-23T16:52:06.009Z,25.70
2018-08-23T16:54:33.414Z,26.00
2018-08-23T16:57:00.810Z,26.20
2018-08-23T16:59:28.230Z,26.30
2018-08-23T17:01:55.605Z,26.30
2018-08-23T17:04:27.950Z,26.30
2018-08-23T17:06:55.938Z,26.20
2018-08-23T17:09:23.353Z,26.10
2018-08-23T17:11:50.758Z,25.80
2018-08-23T17:14:18.142Z,25.60
2018-08-23T17:16:51.826Z,25.40
2018-08-23T17:19:19.859Z,25.30
2018-08-23T17:21:47.894Z,25.10
2018-08-23T17:24:15.316Z,24.90
2018-08-23T17:26:42.689Z,24.70
2018-08-23T17:29:10.094Z,24.60
2018-08-23T17:31:38.145Z,24.50
2018-08-23T17:34:06.257Z,24.30
2018-08-23T17:36:34.297Z,24.10
2018-08-23T17:39:01.674Z,23.90
2018-08-23T17:41:29.706Z,23.70
2018-08-23T17:43:57.095Z,23.60
2018-08-23T17:46:24.474Z,23.50
2018-08-23T17:48:51.862Z,23.40
2018-08-23T17:51:19.898Z,23.30
2018-08-23T17:53:47.936Z,23.30
2018-08-23T17:56:15.977Z,23.20
2018-08-23T17:58:44.018Z,23.10
2018-08-23T18:01:12.064Z,23.10
2018-08-23T18:03:39.438Z,23.00
2018-08-23T18:06:06.819Z,22.90
2018-08-23T18:08:34.855Z,22.80
2018-08-23T18:11:02.894Z,22.80
2018-08-23T18:13:30.934Z,22.70
2018-08-23T18:16:04.370Z,22.70
2018-08-23T18:18:32.402Z,22.60
2018-08-23T18:21:00.442Z,22.50
2018-08-23T18:23:28.490Z,22.50
2018-08-23T18:25:56.526Z,22.40
2018-08-23T18:28:24.598Z,22.30
2018-08-23T18:30:52.653Z,22.20
2018-08-23T18:33:20.694Z,22.20
2018-08-23T18:35:48.717Z,22.20
2018-08-23T18:38:16.774Z,22.20
2018-08-23T18:40:44.835Z,22.20
2018-08-23T18:43:12.865Z,22.10
2018-08-23T18:45:40.904Z,22.00
2018-08-23T18:48:08.946Z,22.00
2018-08-23T18:50:36.983Z,21.90
2018-08-23T18:53:05.040Z,21.90
2018-08-23T18:55:33.067Z,21.90
2018-08-23T18:58:00.457Z,21.90
2018-08-23T19:00:28.123Z,21.90
2018-08-23T19:02:55.490Z,21.80
2018-08-23T19:05:22.914Z,21.80
2018-08-23T19:07:50.301Z,21.70
2018-08-23T19:10:17.740Z,21.60
2018-08-23T19:12:46.179Z,21.50
2018-08-23T19:15:13.538Z,21.40
2018-08-23T19:17:42.967Z,21.40
2018-08-23T19:20:11.834Z,21.40
2018-08-23T19:22:39.222Z,21.30
2018-08-23T19:25:07.916Z,21.20
2018-08-23T19:27:35.265Z,21.20
2018-08-23T19:30:02.654Z,21.30
2018-08-23T19:32:30.374Z,21.30
2018-08-23T19:34:57.814Z,21.30
2018-08-23T19:37:25.206Z,21.40
2018-08-23T19:39:53.113Z,21.40
2018-08-23T19:42:20.506Z,21.50
2018-08-23T19:44:53.434Z,21.30
2018-08-23T19:47:26.521Z,21.40
2018-08-23T19:49:55.372Z,21.40
2018-08-23T19:52:22.813Z,21.50
2018-08-23T19:54:51.338Z,21.50
2018-08-23T19:57:18.742Z,21.50
2018-08-23T19:59:46.129Z,21.50
2018-08-23T20:02:13.513Z,21.50
2018-08-23T20:04:41.766Z,21.50
2018-08-23T20:07:09.302Z,21.50
2018-08-23T20:09:36.863Z,21.50
2018-08-23T20:12:04.397Z,21.50
2018-08-23T20:14:31.785Z,21.40
2018-08-23T20:16:59.470Z,21.40
2018-08-23T20:19:26.892Z,21.50
2018-08-23T20:21:54.287Z,21.40
2018-08-23T20:24:21.705Z,21.50
2018-08-23T20:26:49.175Z,21.50
2018-08-23T20:29:16.701Z,21.60
2018-08-23T20:31:44.101Z,21.60
2018-08-23T20:34:11.481Z,21.70
2018-08-23T20:36:38.869Z,21.60
2018-08-23T20:39:07.844Z,21.70
2018-08-23T20:41:35.145Z,21.70
2018-08-23T20:44:02.538Z,21.60
2018-08-23T20:46:29.938Z,21.60
2018-08-23T20:48:57.321Z,21.50
2018-08-23T20:51:24.735Z,21.50
2018-08-23T20:53:52.118Z,21.40
2018-08-23T20:56:19.494Z,21.30
2018-08-23T20:58:46.861Z,21.30
2018-08-23T21:01:14.309Z,21.30
2018-08-23T21:03:41.853Z,21.20
2018-08-23T21:06:11.150Z,21.30
2018-08-23T21:08:38.670Z,21.30
2018-08-23T21:11:06.375Z,21.30
2018-08-23T21:13:33.867Z,21.40
2018-08-23T21:16:01.354Z,21.40
2018-08-23T21:18:29.519Z,21.40
2018-08-23T21:20:57.087Z,21.40
2018-08-23T21:23:25.617Z,21.40
2018-08-23T21:25:53.668Z,21.50
2018-08-23T21:28:22.141Z,21.50
2018-08-23T21:30:50.364Z,21.50
2018-08-23T21:33:20.229Z,21.50
2018-08-23T21:35:48.504Z,21.50
2018-08-23T21:38:16.560Z,21.60
2018-08-23T21:40:44.623Z,21.60
2018-08-23T21:43:12.686Z,21.00
2018-08-23T21:45:40.811Z,20.40
2018-08-23T21:48:08.852Z,20.10
2018-08-23T21:50:36.930Z,20.00
2018-08-23T21:53:05.054Z,19.90
2018-08-23T21:55:36.933Z,19.90
2018-08-23T21:58:06.162Z,19.90
2018-08-23T22:00:39.637Z,19.90
2018-08-23T22:03:07.069Z,19.90
2018-08-23T22:05:35.118Z,19.90
2018-08-23T22:08:02.522Z,19.90
2018-08-23T22:10:29.895Z,19.90
2018-08-23T22:12:57.309Z,19.80
2018-08-23T22:15:24.821Z,19.80
2018-08-23T22:17:52.141Z,19.80
2018-08-23T22:20:19.525Z,19.80
2018-08-23T22:22:47.582Z,19.80
2018-08-23T22:25:14.961Z,19.90
2018-08-23T22:27:43.023Z,19.90
2018-08-23T22:30:11.110Z,19.90
2018-08-23T22:32:39.167Z,19.80
2018-08-23T22:35:07.202Z,19.90
2018-08-23T22:37:34.613Z,19.90
2018-08-23T22:40:01.998Z,19.80
2018-08-23T22:42:29.880Z,19.80
2018-08-23T22:44:57.307Z,19.80
2018-08-23T22:47:25.398Z,19.80
2018-08-23T22:49:53.605Z,19.80
2018-08-23T22:52:21.650Z,19.70
2018-08-23T22:54:49.706Z,19.60
2018-08-23T22:57:17.754Z,19.60
2018-08-23T22:59:45.157Z,19.60
2018-08-23T23:02:18.054Z,19.50
2018-08-23T23:04:45.442Z,19.40
2018-08-23T23:07:12.833Z,19.40
2018-08-23T23:09:40.217Z,19.30
2018-08-23T23:12:07.636Z,19.30
2018-08-23T23:14:35.022Z,19.30
2018-08-23T23:17:05.546Z,19.30
2018-08-23T23:19:32.947Z,19.20
2018-08-23T23:22:00.454Z,19.20
2018-08-23T23:24:33.453Z,19.20
2018-08-23T23:27:00.882Z,19.10
2018-08-23T23:29:28.264Z,19.10
2018-08-23T23:31:55.660Z,19.00
2018-08-23T23:34:23.181Z,18.90
2018-08-23T23:36:50.569Z,18.80
2018-08-23T23:39:18.137Z,18.90
2018-08-23T23:41:46.216Z,18.90
2018-08-23T23:44:14.302Z,19.00
2018-08-23T23:46:42.390Z,18.90
2018-08-23T23:49:10.454Z,19.00
2018-08-23T23:51:38.502Z,18.90
2018-08-23T23:54:06.850Z,18.90
2018-08-23T23:56:34.261Z,18.90
2018-08-23T23:59:01.702Z,18.80
